createdAt,value
2018-03-08T00:00:44.153Z,48.90
2018-03-08T00:03:10.982Z,43.80
2018-03-08T00:05:37.742Z,48.90
2018-03-08T00:08:04.531Z,47.17
2018-03-08T00:10:31.316Z,47.53
2018-03-08T00:12:58.206Z,41.40
2018-03-08T00:15:24.974Z,42.37
2018-03-08T00:17:51.736Z,36.47
2018-03-08T00:20:18.493Z,43.20
2018-03-08T00:22:45.279Z,40.67
2018-03-08T00:25:12.052Z,40.90
2018-03-08T00:27:38.868Z,42.10
2018-03-08T00:30:05.660Z,40.97
2018-03-08T00:32:32.465Z,39.03
2018-03-08T00:34:59.254Z,39.40
2018-03-08T00:37:26.054Z,39.70
2018-03-08T00:39:53.047Z,39.47
2018-03-08T00:42:19.858Z,36.70
2018-03-08T00:44:46.751Z,37.47
2018-03-08T00:47:13.518Z,41.43
2018-03-08T00:49:40.291Z,37.73
2018-03-08T00:52:07.075Z,44.27
2018-03-08T00:54:33.869Z,35.97
2018-03-08T00:57:00.658Z,44.57
2018-03-08T00:59:27.456Z,39.87
2018-03-08T01:01:54.254Z,39.83
2018-03-08T01:04:21.047Z,42.13
2018-03-08T01:06:48.015Z,42.23
2018-03-08T01:09:14.767Z,44.67
2018-03-08T01:11:41.538Z,43.07
2018-03-08T01:14:08.303Z,46.23
2018-03-08T01:16:35.056Z,44.17
2018-03-08T01:19:01.848Z,43.77
2018-03-08T01:21:28.695Z,47.07
2018-03-08T01:23:55.476Z,45.63
2018-03-08T01:26:22.274Z,40.80
2018-03-08T01:28:49.075Z,51.73
2018-03-08T01:31:15.828Z,49.83
2018-03-08T01:33:42.617Z,50.60
2018-03-08T01:36:15.323Z,48.53
2018-03-08T01:38:42.106Z,47.00
2018-03-08T01:41:09.020Z,51.40
2018-03-08T01:43:35.808Z,51.63
2018-03-08T01:46:02.610Z,41.77
2018-03-08T01:48:29.366Z,42.50
2018-03-08T01:50:56.168Z,46.70
2018-03-08T01:53:23.181Z,47.37
2018-03-08T01:55:49.997Z,46.03
2018-03-08T01:58:16.803Z,49.20
2018-03-08T02:00:43.562Z,49.90
2018-03-08T02:03:10.325Z,47.53
2018-03-08T02:05:37.092Z,47.03
2018-03-08T02:08:03.846Z,44.20
2018-03-08T02:10:30.602Z,44.60
2018-03-08T02:12:57.372Z,46.90
2018-03-08T02:15:24.151Z,45.73
2018-03-08T02:17:50.906Z,47.00
2018-03-08T02:20:17.664Z,43.07
2018-03-08T02:22:44.430Z,49.90
2018-03-08T02:25:11.250Z,49.53
2018-03-08T02:27:38.009Z,47.10
2018-03-08T02:30:04.790Z,43.07
2018-03-08T02:32:31.554Z,49.60
2018-03-08T02:34:58.307Z,47.93
2018-03-08T02:37:25.070Z,46.27
2018-03-08T02:39:51.824Z,51.73
2018-03-08T02:42:18.623Z,50.33
2018-03-08T02:44:45.415Z,52.70
2018-03-08T02:47:12.176Z,46.80
2018-03-08T02:49:38.921Z,49.40
2018-03-08T02:52:05.674Z,49.23
2018-03-08T02:54:32.623Z,44.90
2018-03-08T02:56:59.406Z,49.90
2018-03-08T02:59:26.193Z,45.70
2018-03-08T03:01:52.974Z,42.27
2018-03-08T03:04:19.763Z,42.07
2018-03-08T03:06:46.559Z,42.37
2018-03-08T03:09:13.311Z,39.13
2018-03-08T03:11:40.074Z,41.47
2018-03-08T03:14:06.855Z,39.67
2018-03-08T03:16:33.624Z,40.57
2018-03-08T03:19:00.388Z,39.73
2018-03-08T03:21:27.150Z,38.33
2018-03-08T03:23:53.937Z,42.60
2018-03-08T03:26:20.671Z,39.10
2018-03-08T03:28:47.454Z,38.93
2018-03-08T03:31:14.204Z,37.10
2018-03-08T03:33:40.975Z,33.37
2018-03-08T03:36:07.771Z,35.97
2018-03-08T03:38:34.568Z,36.87
2018-03-08T03:41:01.319Z,34.40
2018-03-08T03:43:28.073Z,32.40
2018-03-08T03:45:54.862Z,29.23
2018-03-08T03:48:21.620Z,35.53
2018-03-08T03:50:48.376Z,35.80
2018-03-08T03:53:15.171Z,34.10
2018-03-08T03:55:41.971Z,32.10
2018-03-08T03:58:08.731Z,31.83
2018-03-08T04:00:35.493Z,27.20
2018-03-08T04:03:02.270Z,26.87
2018-03-08T04:05:29.038Z,28.30
2018-03-08T04:07:55.807Z,28.63
2018-03-08T04:10:22.567Z,25.83
2018-03-08T04:12:49.337Z,26.57
2018-03-08T04:15:16.099Z,27.10
2018-03-08T04:17:42.859Z,28.13
2018-03-08T04:20:09.653Z,27.10
2018-03-08T04:22:36.478Z,28.33
2018-03-08T04:25:03.239Z,24.70
2018-03-08T04:27:30.015Z,28.47
2018-03-08T04:29:56.769Z,25.40
2018-03-08T04:32:23.749Z,25.47
2018-03-08T04:34:50.499Z,27.10
2018-03-08T04:37:17.300Z,30.13
2018-03-08T04:39:44.074Z,25.23
2018-03-08T04:42:10.855Z,26.87
2018-03-08T04:44:37.626Z,23.07
2018-03-08T04:47:04.402Z,25.07
2018-03-08T04:49:31.171Z,26.47
2018-03-08T04:51:57.918Z,22.13
2018-03-08T04:54:24.679Z,26.50
2018-03-08T04:56:51.469Z,28.80
2018-03-08T04:59:18.242Z,25.83
2018-03-08T05:01:45.011Z,21.73
2018-03-08T05:04:11.777Z,23.67
2018-03-08T05:06:38.559Z,24.47
2018-03-08T05:09:05.360Z,23.60
2018-03-08T05:11:32.140Z,23.10
2018-03-08T05:13:58.901Z,26.27
2018-03-08T05:16:25.673Z,22.60
2018-03-08T05:18:52.442Z,21.33
2018-03-08T05:21:19.205Z,22.30
2018-03-08T05:23:45.975Z,22.47
2018-03-08T05:26:12.765Z,25.83
2018-03-08T05:28:39.571Z,24.17
2018-03-08T05:31:06.331Z,24.33
2018-03-08T05:33:33.282Z,30.90
2018-03-08T05:36:00.106Z,32.57
2018-03-08T05:38:26.882Z,28.70
2018-03-08T05:40:53.647Z,35.03
2018-03-08T05:43:20.410Z,29.47
2018-03-08T05:45:47.172Z,26.07
2018-03-08T05:48:13.933Z,29.67
2018-03-08T05:50:40.703Z,26.43
2018-03-08T05:53:07.492Z,27.03
2018-03-08T05:55:34.255Z,29.83
2018-03-08T05:58:01.052Z,29.93
2018-03-08T06:00:27.815Z,27.77
2018-03-08T06:02:54.583Z,32.30
2018-03-08T06:05:21.534Z,29.30
2018-03-08T06:07:48.327Z,37.20
2018-03-08T06:10:15.213Z,34.83
2018-03-08T06:12:42.023Z,38.93
2018-03-08T06:15:08.815Z,35.53
2018-03-08T06:17:35.607Z,40.33
2018-03-08T06:20:02.392Z,40.93
2018-03-08T06:22:29.166Z,39.30
2018-03-08T06:24:55.948Z,34.60
2018-03-08T06:27:22.711Z,35.60
2018-03-08T06:29:49.448Z,38.07
2018-03-08T06:32:16.236Z,28.73
2018-03-08T06:34:43.009Z,23.93
2018-03-08T06:37:09.767Z,28.40
2018-03-08T06:39:36.534Z,28.23
2018-03-08T06:42:03.320Z,33.37
2018-03-08T06:44:30.083Z,28.33
2018-03-08T06:46:56.838Z,34.40
2018-03-08T06:49:23.636Z,29.10
2018-03-08T06:51:50.784Z,30.20
2018-03-08T06:54:17.564Z,23.93
2018-03-08T06:56:44.541Z,28.00
2018-03-08T06:59:11.338Z,45.10
2018-03-08T07:01:38.100Z,81.53
2018-03-08T07:04:05.743Z,82.60
2018-03-08T07:06:32.495Z,62.77
2018-03-08T07:08:59.289Z,37.23
2018-03-08T07:11:26.059Z,20.03
2018-03-08T07:13:52.882Z,20.70
2018-03-08T07:16:19.704Z,19.70
2018-03-08T07:18:46.471Z,19.83
2018-03-08T07:21:13.239Z,17.40
2018-03-08T07:23:40.007Z,17.13
2018-03-08T07:26:06.763Z,18.53
2018-03-08T07:28:33.529Z,17.13
2018-03-08T07:31:00.282Z,19.90
2018-03-08T07:33:27.083Z,18.90
2018-03-08T07:35:53.872Z,19.77
2018-03-08T07:38:20.640Z,15.90
2018-03-08T07:40:47.411Z,17.03
2018-03-08T07:43:14.171Z,17.67
2018-03-08T07:45:40.917Z,16.03
2018-03-08T07:48:07.685Z,13.93
2018-03-08T07:50:34.487Z,17.93
2018-03-08T07:53:01.362Z,17.40
2018-03-08T07:55:28.174Z,17.13
2018-03-08T07:57:54.952Z,13.70
2018-03-08T08:00:21.777Z,15.70
2018-03-08T08:02:48.558Z,16.47
2018-03-08T08:05:21.170Z,15.80
2018-03-08T08:07:54.045Z,15.23
2018-03-08T08:10:20.858Z,13.07
2018-03-08T08:12:47.612Z,12.17
2018-03-08T08:15:14.418Z,13.03
2018-03-08T08:17:41.194Z,18.03
2018-03-08T08:20:07.968Z,12.57
2018-03-08T08:22:34.717Z,10.37
2018-03-08T08:25:01.505Z,11.90
2018-03-08T08:27:28.314Z,12.47
2018-03-08T08:29:55.883Z,11.17
2018-03-08T08:32:22.665Z,13.23
2018-03-08T08:34:49.419Z,11.37
2018-03-08T08:37:16.302Z,12.83
2018-03-08T08:39:43.143Z,12.77
2018-03-08T08:42:09.941Z,14.17
2018-03-08T08:44:36.726Z,13.20
2018-03-08T08:47:03.546Z,10.87
2018-03-08T08:49:30.308Z,13.43
2018-03-08T08:51:57.143Z,13.07
2018-03-08T08:54:23.954Z,11.40
2018-03-08T08:56:50.742Z,13.60
2018-03-08T08:59:17.555Z,11.13
2018-03-08T09:01:44.331Z,12.83
2018-03-08T09:04:11.100Z,13.83
2018-03-08T09:06:38.532Z,14.77
2018-03-08T09:09:05.310Z,13.57
2018-03-08T09:11:32.072Z,11.27
2018-03-08T09:13:58.831Z,14.20
2018-03-08T09:16:25.594Z,16.17
2018-03-08T09:18:52.364Z,12.60
2018-03-08T09:21:19.320Z,14.17
2018-03-08T09:23:46.097Z,12.63
2018-03-08T09:26:12.899Z,15.60
2018-03-08T09:28:39.652Z,12.53
2018-03-08T09:31:06.478Z,15.20
2018-03-08T09:33:33.866Z,13.23
2018-03-08T09:36:00.634Z,17.27
2018-03-08T09:38:27.370Z,11.83
2018-03-08T09:40:54.381Z,14.43
2018-03-08T09:43:21.177Z,14.43
2018-03-08T09:45:47.955Z,12.53
2018-03-08T09:48:14.737Z,11.57
2018-03-08T09:50:41.544Z,12.67
2018-03-08T09:53:08.347Z,12.77
2018-03-08T09:55:35.128Z,15.47
2018-03-08T09:58:01.920Z,13.57
2018-03-08T10:00:28.683Z,14.80
2018-03-08T10:02:55.450Z,14.37
2018-03-08T10:05:22.251Z,12.90
2018-03-08T10:07:49.079Z,12.50
2018-03-08T10:10:15.835Z,13.13
2018-03-08T10:12:42.587Z,12.50
2018-03-08T10:15:09.335Z,11.40
2018-03-08T10:17:36.208Z,13.03
2018-03-08T10:20:03.339Z,12.10
2018-03-08T10:22:30.068Z,9.87
2018-03-08T10:24:56.814Z,10.17
2018-03-08T10:27:23.599Z,12.73
2018-03-08T10:29:50.386Z,10.20
2018-03-08T10:32:17.471Z,11.97
2018-03-08T10:34:44.237Z,15.20
2018-03-08T10:37:11.028Z,12.87
2018-03-08T10:39:37.810Z,14.13
2018-03-08T10:42:04.580Z,19.90
2018-03-08T10:44:31.467Z,16.77
2018-03-08T10:46:58.288Z,19.53
2018-03-08T10:49:25.040Z,18.67
2018-03-08T10:51:51.826Z,16.73
2018-03-08T10:54:18.609Z,18.50
2018-03-08T10:56:45.434Z,23.20
2018-03-08T10:59:12.951Z,17.30
2018-03-08T11:01:44.887Z,15.77
2018-03-08T11:04:14.632Z,6.37
2018-03-08T11:06:41.372Z,4.53
2018-03-08T11:12:15.276Z,7.57
2018-03-08T11:14:42.059Z,9.70
2018-03-08T11:17:08.866Z,8.00
2018-03-08T11:19:35.760Z,7.87
2018-03-08T11:22:02.539Z,10.73
2018-03-08T11:24:29.327Z,9.57
2018-03-08T11:26:56.091Z,8.47
2018-03-08T11:29:22.995Z,8.87
2018-03-08T11:31:49.768Z,11.63
2018-03-08T11:34:16.558Z,9.20
2018-03-08T11:36:43.344Z,8.07
2018-03-08T11:39:10.143Z,9.13
2018-03-08T11:41:36.902Z,7.63
2018-03-08T11:44:03.802Z,8.20
2018-03-08T11:46:30.661Z,9.03
2018-03-08T11:48:57.466Z,9.83
2018-03-08T11:51:24.235Z,9.73
2018-03-08T11:53:50.988Z,11.83
2018-03-08T11:56:17.816Z,8.67
2018-03-08T11:58:44.630Z,9.00
2018-03-08T12:01:11.410Z,8.67
2018-03-08T12:03:38.187Z,12.63
2018-03-08T12:06:04.981Z,9.33
2018-03-08T12:08:31.759Z,8.57
2018-03-08T12:10:58.547Z,8.37
2018-03-08T12:13:25.300Z,10.67
2018-03-08T12:15:52.438Z,9.00
2018-03-08T12:18:19.711Z,9.47
2018-03-08T12:20:46.551Z,10.00
2018-03-08T12:23:13.331Z,10.33
2018-03-08T12:28:23.942Z,16.13
2018-03-08T12:30:50.728Z,10.90
2018-03-08T12:33:17.515Z,9.13
2018-03-08T12:35:44.276Z,13.60
2018-03-08T12:38:11.133Z,10.17
2018-03-08T12:40:37.891Z,9.20
2018-03-08T12:43:04.653Z,10.63
2018-03-08T12:45:31.418Z,12.30
2018-03-08T12:47:58.197Z,18.43
2018-03-08T12:50:24.971Z,16.83
2018-03-08T12:52:51.754Z,12.60
2018-03-08T12:55:18.541Z,11.87
2018-03-08T12:57:45.309Z,15.20
2018-03-08T13:00:12.063Z,10.47
2018-03-08T13:02:38.822Z,11.33
2018-03-08T13:05:05.613Z,9.27
2018-03-08T13:07:32.389Z,12.13
2018-03-08T13:09:59.222Z,10.83
2018-03-08T13:12:39.406Z,9.47
2018-03-08T13:24:26.586Z,29.63
2018-03-08T13:26:53.387Z,15.57
2018-03-08T13:29:20.158Z,13.00
2018-03-08T13:31:46.913Z,16.20
2018-03-08T13:34:13.704Z,12.17
2018-03-08T13:36:40.558Z,14.07
2018-03-08T13:39:07.297Z,15.67
2018-03-08T13:41:34.048Z,11.57
2018-03-08T13:44:00.843Z,14.67
2018-03-08T13:46:27.611Z,15.87
2018-03-08T13:48:54.371Z,19.40
2018-03-08T13:51:21.210Z,14.93
2018-03-08T13:53:47.962Z,16.33
2018-03-08T13:56:14.718Z,16.13
2018-03-08T13:58:41.510Z,16.03
2018-03-08T14:01:08.339Z,12.93
2018-03-08T14:03:35.101Z,8.90
2018-03-08T14:06:02.427Z,12.23
2018-03-08T14:08:29.315Z,9.27
2018-03-08T14:10:56.108Z,14.33
2018-03-08T14:13:22.895Z,9.30
2018-03-08T14:15:49.688Z,9.77
2018-03-08T14:18:16.452Z,11.20
2018-03-08T14:21:10.157Z,11.43
2018-03-08T14:23:46.198Z,11.80
2018-03-08T14:26:26.769Z,12.37
2018-03-08T14:28:58.268Z,14.87
2018-03-08T14:31:25.031Z,12.17
2018-03-08T14:33:57.045Z,13.03
2018-03-08T14:36:23.987Z,11.33
2018-03-08T14:39:12.495Z,21.33
2018-03-08T14:41:39.246Z,20.97
2018-03-08T14:44:06.075Z,14.20
2018-03-08T14:46:32.840Z,12.57
2018-03-08T14:48:59.636Z,16.13
2018-03-08T14:51:26.446Z,17.57
2018-03-08T14:53:53.203Z,15.67
2018-03-08T14:56:19.962Z,16.67
2018-03-08T14:58:46.733Z,18.37
2018-03-08T15:01:13.510Z,14.93
2018-03-08T15:03:40.399Z,18.33
2018-03-08T15:09:50.962Z,20.77
2018-03-08T15:15:24.547Z,14.23
2018-03-08T15:17:54.255Z,15.27
2018-03-08T15:20:21.023Z,15.23
2018-03-08T15:22:47.852Z,13.87
2018-03-08T15:25:14.705Z,16.73
2018-03-08T15:27:41.483Z,15.60
2018-03-08T15:30:08.300Z,15.10
2018-03-08T15:32:35.067Z,22.50
2018-03-08T15:35:01.893Z,30.47
2018-03-08T15:37:28.663Z,34.67
2018-03-08T15:39:56.598Z,44.70
2018-03-08T15:42:23.363Z,42.77
2018-03-08T15:44:50.176Z,37.00
2018-03-08T15:47:17.005Z,40.00
2018-03-08T15:49:43.776Z,47.07
2018-03-08T15:52:10.547Z,43.80
2018-03-08T15:54:37.385Z,47.53
2018-03-08T15:57:04.163Z,30.87
2018-03-08T15:59:31.740Z,25.53
2018-03-08T16:01:58.555Z,37.93
2018-03-08T16:04:25.349Z,25.27
2018-03-08T16:07:07.727Z,26.27
2018-03-08T16:09:40.342Z,21.07
2018-03-08T16:12:07.143Z,20.73
2018-03-08T16:14:33.942Z,29.37
2018-03-08T16:17:01.219Z,24.47
2018-03-08T16:19:28.093Z,21.93
2018-03-08T16:21:54.863Z,24.20
2018-03-08T16:24:21.741Z,28.40
2018-03-08T16:26:59.441Z,41.57
2018-03-08T16:29:26.844Z,33.73
2018-03-08T16:32:02.192Z,26.37
2018-03-08T16:34:29.040Z,39.90
2018-03-08T16:36:56.191Z,48.83
2018-03-08T16:39:23.963Z,28.23
2018-03-08T16:41:51.555Z,39.90
2018-03-08T16:44:29.301Z,27.07
2018-03-08T16:46:59.616Z,32.27
2018-03-08T16:49:26.681Z,37.17
2018-03-08T16:51:53.452Z,36.80
2018-03-08T16:54:23.794Z,31.57
2018-03-08T16:56:50.761Z,32.80
2018-03-08T16:59:17.596Z,27.83
2018-03-08T17:01:44.602Z,28.50
2018-03-08T17:04:11.383Z,30.60
2018-03-08T17:06:38.156Z,29.00
2018-03-08T17:09:04.971Z,31.03
2018-03-08T17:11:31.732Z,28.53
2018-03-08T17:13:58.676Z,34.80
2018-03-08T17:16:25.495Z,33.00
2018-03-08T17:18:52.311Z,38.60
2018-03-08T17:21:19.307Z,38.37
2018-03-08T17:23:46.098Z,44.33
2018-03-08T17:26:12.892Z,51.97
2018-03-08T17:28:39.678Z,54.37
2018-03-08T17:31:06.438Z,64.90
2018-03-08T17:33:33.423Z,74.50
2018-03-08T17:36:01.041Z,76.17
2018-03-08T17:38:27.794Z,66.70
2018-03-08T17:40:54.991Z,71.93
2018-03-08T17:43:22.628Z,60.17
2018-03-08T17:45:49.387Z,73.17
2018-03-08T17:48:16.202Z,69.20
2018-03-08T17:50:44.078Z,53.13
2018-03-08T17:53:14.159Z,59.40
2018-03-08T17:55:41.557Z,55.10
2018-03-08T17:58:08.352Z,58.30
2018-03-08T18:00:35.097Z,51.13
2018-03-08T18:03:01.855Z,56.70
2018-03-08T18:05:28.807Z,51.77
2018-03-08T18:07:55.618Z,50.63
2018-03-08T18:10:22.475Z,49.33
2018-03-08T18:12:49.835Z,43.53
2018-03-08T18:15:16.635Z,37.97
2018-03-08T18:17:54.684Z,42.93
2018-03-08T18:20:21.467Z,42.03
2018-03-08T18:22:48.259Z,41.40
2018-03-08T18:25:15.035Z,44.03
2018-03-08T18:27:41.873Z,35.77
2018-03-08T18:30:08.632Z,33.33
2018-03-08T18:32:35.403Z,24.63
2018-03-08T18:35:12.564Z,30.73
2018-03-08T18:37:39.715Z,25.37
2018-03-08T18:40:07.988Z,26.57
2018-03-08T18:42:35.037Z,24.27
2018-03-08T18:45:02.136Z,21.17
2018-03-08T18:47:29.039Z,33.17
2018-03-08T18:49:56.153Z,35.40
2018-03-08T18:52:23.027Z,38.07
2018-03-08T18:54:49.842Z,41.13
2018-03-08T18:57:16.631Z,48.27
2018-03-08T18:59:43.439Z,51.77
2018-03-08T19:02:12.264Z,39.47
2018-03-08T19:04:39.039Z,36.40
2018-03-08T19:07:05.842Z,36.93
2018-03-08T19:09:32.838Z,44.70
2018-03-08T19:11:59.929Z,30.20
2018-03-08T19:14:26.734Z,36.20
2018-03-08T19:16:54.645Z,37.63
2018-03-08T19:19:21.600Z,40.67
2018-03-08T19:21:48.639Z,43.83
2018-03-08T19:24:15.451Z,42.77
2018-03-08T19:26:42.739Z,36.43
2018-03-08T19:29:09.812Z,44.60
2018-03-08T19:31:37.036Z,38.93
2018-03-08T19:34:04.046Z,43.10
2018-03-08T19:36:31.017Z,43.17
2018-03-08T19:38:57.898Z,47.73
2018-03-08T19:41:24.828Z,53.53
2018-03-08T19:43:52.028Z,49.43
2018-03-08T19:46:19.052Z,47.00
2018-03-08T19:48:45.885Z,43.77
2018-03-08T19:51:14.773Z,49.13
2018-03-08T19:53:43.959Z,48.43
2018-03-08T19:56:11.063Z,72.27
2018-03-08T19:58:38.542Z,50.97
2018-03-08T20:01:09.200Z,51.87
2018-03-08T20:03:36.813Z,52.33
2018-03-08T20:06:04.158Z,49.70
2018-03-08T20:08:30.995Z,50.13
2018-03-08T20:10:58.014Z,65.87
2018-03-08T20:13:24.932Z,58.40
2018-03-08T20:15:51.810Z,153.20
2018-03-08T20:18:18.603Z,70.57
2018-03-08T20:20:45.576Z,63.07
2018-03-08T20:23:12.663Z,51.23
2018-03-08T20:25:39.515Z,55.93
2018-03-08T20:28:06.685Z,63.87
2018-03-08T20:30:33.483Z,72.67
2018-03-08T20:33:00.296Z,83.60
2018-03-08T20:35:27.396Z,78.17
2018-03-08T20:37:54.183Z,73.60
2018-03-08T20:40:21.319Z,86.27
2018-03-08T20:42:48.104Z,108.57
2018-03-08T20:45:14.907Z,94.00
2018-03-08T20:47:42.024Z,84.73
2018-03-08T20:50:09.298Z,82.53
2018-03-08T20:52:36.111Z,61.87
2018-03-08T20:55:02.949Z,54.90
2018-03-08T20:57:29.805Z,55.47
2018-03-08T20:59:56.613Z,59.53
2018-03-08T21:02:23.431Z,59.73
2018-03-08T21:04:50.234Z,82.43
2018-03-08T21:07:17.093Z,92.47
2018-03-08T21:09:43.893Z,83.37
2018-03-08T21:15:11.221Z,72.50
2018-03-08T21:17:37.999Z,66.23
2018-03-08T21:20:04.778Z,58.97
2018-03-08T21:22:31.557Z,51.53
2018-03-08T21:24:58.402Z,52.53
2018-03-08T21:27:25.246Z,60.47
2018-03-08T21:29:52.005Z,51.93
2018-03-08T21:32:18.794Z,54.43
2018-03-08T21:34:45.591Z,57.53
2018-03-08T21:37:13.238Z,45.17
2018-03-08T21:39:45.384Z,60.80
2018-03-08T21:42:12.191Z,65.47
2018-03-08T21:44:38.996Z,55.10
2018-03-08T21:47:05.943Z,54.70
2018-03-08T21:49:32.750Z,56.37
2018-03-08T21:51:59.698Z,66.57
2018-03-08T21:54:26.570Z,66.90
2018-03-08T21:56:53.476Z,65.30
2018-03-08T21:59:20.402Z,69.47
2018-03-08T22:01:47.901Z,64.60
2018-03-08T22:04:14.879Z,67.40
2018-03-08T22:06:41.716Z,55.63
2018-03-08T22:09:08.848Z,68.07
2018-03-08T22:11:35.919Z,64.10
2018-03-08T22:14:02.758Z,57.40
2018-03-08T22:16:29.564Z,63.90
2018-03-08T22:18:56.373Z,78.63
2018-03-08T22:21:23.677Z,59.57
2018-03-08T22:23:50.576Z,58.13
2018-03-08T22:26:17.644Z,56.60
2018-03-08T22:28:44.640Z,51.90
2018-03-08T22:31:11.421Z,81.50
2018-03-08T22:33:38.381Z,57.87
2018-03-08T22:36:05.203Z,62.13
2018-03-08T22:38:33.180Z,53.50
2018-03-08T22:41:00.004Z,55.07
2018-03-08T22:43:26.807Z,58.30
2018-03-08T22:45:53.615Z,53.20
2018-03-08T22:48:20.406Z,45.37
2018-03-08T22:50:47.540Z,40.10
2018-03-08T22:53:14.460Z,42.30
2018-03-08T22:55:41.233Z,43.00
2018-03-08T22:58:08.011Z,37.57
2018-03-08T23:00:34.876Z,39.70
2018-03-08T23:03:07.360Z,37.90
2018-03-08T23:05:34.116Z,39.83
2018-03-08T23:08:01.029Z,41.03
2018-03-08T23:10:27.912Z,37.60
2018-03-08T23:12:54.747Z,50.50
2018-03-08T23:15:21.524Z,47.77
2018-03-08T23:17:48.299Z,43.27
2018-03-08T23:20:15.064Z,41.23
2018-03-08T23:22:41.837Z,43.20
2018-03-08T23:25:08.642Z,38.33
2018-03-08T23:27:35.492Z,41.90
2018-03-08T23:30:02.251Z,36.60
2018-03-08T23:32:29.041Z,36.73
2018-03-08T23:34:56.544Z,40.67
2018-03-08T23:37:23.319Z,40.20
2018-03-08T23:39:50.070Z,33.13
2018-03-08T23:42:16.840Z,35.33
2018-03-08T23:44:43.671Z,37.63
2018-03-08T23:47:10.499Z,39.37
2018-03-08T23:49:37.293Z,42.00
2018-03-08T23:52:04.060Z,36.50
2018-03-08T23:54:30.886Z,34.50
2018-03-08T23:56:57.722Z,34.23
2018-03-08T23:59:35.399Z,31.47
